San Perlita, Texas
Current Conditions -  °F | °C
As of 12:52 AM on Monday 22 Dec 2014 (Local Time) from KHRL Reporting Station
Overcast Overcast  
Wind Chill: 62°   Ceiling: 2700
Heat Index: 62°   Visibility: 7mi
Dew Point: 60°   Wind: 6mph
Humidity: 93%   Direction: 200°SSW
Pressure: 29.85"   Gusts: NA
Location:  26.5°N, 97.64°W
Report Text: KHRL 220652Z AUTO 20005KT 7SM OVC027 17/16 A2985 RMK AO2 SLP108 T01670156 TSNO
Loading
Personal Weather Stations






























Interactive Weather Map New forecast layout! Learn more

10-Day Weather Forecast

Advertisements
Track Severe Weather on mobile